sensor_id;sensor_type;location;lat;lon;timestamp;P1;durP1;ratioP1;P2;durP2;ratioP2
21297;SDS011;10808;48.010;11.326;2023-08-20T00:01:10;8.27;;;4.75;;
21297;SDS011;10808;48.010;11.326;2023-08-20T00:03:38;11.07;;;5.00;;
21297;SDS011;10808;48.010;11.326;2023-08-20T00:06:06;8.35;;;5.05;;
21297;SDS011;10808;48.010;11.326;2023-08-20T00:08:32;8.15;;;4.93;;
21297;SDS011;10808;48.010;11.326;2023-08-20T00:10:58;9.18;;;5.10;;
21297;SDS011;10808;48.010;11.326;2023-08-20T00:13:24;8.93;;;5.03;;
21297;SDS011;10808;48.010;11.326;2023-08-20T00:15:50;11.18;;;5.10;;
21297;SDS011;10808;48.010;11.326;2023-08-20T00:18:16;7.70;;;4.82;;
21297;SDS011;10808;48.010;11.326;2023-08-20T00:20:43;8.77;;;5.25;;
21297;SDS011;10808;48.010;11.326;2023-08-20T00:23:11;9.20;;;5.20;;
21297;SDS011;10808;48.010;11.326;2023-08-20T00:25:37;7.75;;;5.35;;
21297;SDS011;10808;48.010;11.326;2023-08-20T00:28:03;14.02;;;5.30;;
21297;SDS011;10808;48.010;11.326;2023-08-20T00:30:30;9.57;;;5.28;;
21297;SDS011;10808;48.010;11.326;2023-08-20T00:32:56;9.15;;;5.57;;
21297;SDS011;10808;48.010;11.326;2023-08-20T00:35:22;9.02;;;4.95;;
21297;SDS011;10808;48.010;11.326;2023-08-20T00:37:48;10.05;;;5.35;;
21297;SDS011;10808;48.010;11.326;2023-08-20T00:40:14;8.93;;;5.40;;
21297;SDS011;10808;48.010;11.326;2023-08-20T00:42:40;9.20;;;5.50;;
21297;SDS011;10808;48.010;11.326;2023-08-20T00:45:06;8.02;;;5.47;;
21297;SDS011;10808;48.010;11.326;2023-08-20T00:47:33;8.73;;;5.93;;
21297;SDS011;10808;48.010;11.326;2023-08-20T00:50:00;11.25;;;5.50;;
21297;SDS011;10808;48.010;11.326;2023-08-20T00:52:31;9.23;;;5.55;;
21297;SDS011;10808;48.010;11.326;2023-08-20T00:54:57;10.18;;;5.30;;
21297;SDS011;10808;48.010;11.326;2023-08-20T00:57:23;10.27;;;5.63;;
21297;SDS011;10808;48.010;11.326;2023-08-20T00:59:50;9.45;;;5.10;;
21297;SDS011;10808;48.010;11.326;2023-08-20T01:02:17;8.15;;;5.03;;
21297;SDS011;10808;48.010;11.326;2023-08-20T01:04:43;7.50;;;5.07;;
21297;SDS011;10808;48.010;11.326;2023-08-20T01:12:31;8.07;;;5.22;;
21297;SDS011;10808;48.010;11.326;2023-08-20T01:15:00;8.93;;;5.45;;
21297;SDS011;10808;48.010;11.326;2023-08-20T01:17:26;7.50;;;5.20;;
21297;SDS011;10808;48.010;11.326;2023-08-20T01:19:53;9.05;;;5.47;;
21297;SDS011;10808;48.010;11.326;2023-08-20T01:28:27;10.02;;;5.78;;
21297;SDS011;10808;48.010;11.326;2023-08-20T01:30:58;13.30;;;5.82;;
21297;SDS011;10808;48.010;11.326;2023-08-20T01:33:26;14.07;;;5.78;;
21297;SDS011;10808;48.010;11.326;2023-08-20T01:35:53;13.10;;;5.80;;
21297;SDS011;10808;48.010;11.326;2023-08-20T01:38:20;11.48;;;5.68;;
21297;SDS011;10808;48.010;11.326;2023-08-20T01:40:47;10.52;;;5.63;;
21297;SDS011;10808;48.010;11.326;2023-08-20T01:43:13;11.15;;;5.63;;
21297;SDS011;10808;48.010;11.326;2023-08-20T01:45:40;10.13;;;5.60;;
21297;SDS011;10808;48.010;11.326;2023-08-20T01:48:07;7.68;;;5.40;;
21297;SDS011;10808;48.010;11.326;2023-08-20T01:50:33;10.43;;;5.60;;
21297;SDS011;10808;48.010;11.326;2023-08-20T01:53:00;8.55;;;5.60;;
21297;SDS011;10808;48.010;11.326;2023-08-20T01:55:28;10.35;;;6.00;;
21297;SDS011;10808;48.010;11.326;2023-08-20T01:57:54;7.18;;;5.63;;
21297;SDS011;10808;48.010;11.326;2023-08-20T02:00:20;9.02;;;5.80;;
21297;SDS011;10808;48.010;11.326;2023-08-20T02:02:46;13.88;;;5.95;;
21297;SDS011;10808;48.010;11.326;2023-08-20T02:05:12;9.15;;;5.50;;
21297;SDS011;10808;48.010;11.326;2023-08-20T02:07:38;8.77;;;5.40;;
21297;SDS011;10808;48.010;11.326;2023-08-20T02:10:04;11.27;;;5.75;;
21297;SDS011;10808;48.010;11.326;2023-08-20T02:12:31;8.68;;;5.63;;
21297;SDS011;10808;48.010;11.326;2023-08-20T02:14:57;9.85;;;6.20;;
21297;SDS011;10808;48.010;11.326;2023-08-20T02:17:23;11.20;;;5.53;;
21297;SDS011;10808;48.010;11.326;2023-08-20T02:19:49;9.55;;;5.88;;
21297;SDS011;10808;48.010;11.326;2023-08-20T02:22:15;9.07;;;5.72;;
21297;SDS011;10808;48.010;11.326;2023-08-20T02:24:41;8.65;;;5.60;;
21297;SDS011;10808;48.010;11.326;2023-08-20T02:27:07;8.02;;;5.90;;
21297;SDS011;10808;48.010;11.326;2023-08-20T02:29:33;10.10;;;5.70;;
21297;SDS011;10808;48.010;11.326;2023-08-20T02:31:59;8.43;;;5.90;;
21297;SDS011;10808;48.010;11.326;2023-08-20T02:34:25;7.47;;;5.53;;
21297;SDS011;10808;48.010;11.326;2023-08-20T02:36:51;11.03;;;5.80;;
21297;SDS011;10808;48.010;11.326;2023-08-20T02:39:17;11.00;;;5.53;;
21297;SDS011;10808;48.010;11.326;2023-08-20T02:41:43;8.82;;;5.65;;
21297;SDS011;10808;48.010;11.326;2023-08-20T02:44:09;11.23;;;5.60;;
21297;SDS011;10808;48.010;11.326;2023-08-20T02:46:35;11.30;;;5.93;;
21297;SDS011;10808;48.010;11.326;2023-08-20T02:49:03;11.63;;;6.38;;
21297;SDS011;10808;48.010;11.326;2023-08-20T02:51:29;10.90;;;5.45;;
21297;SDS011;10808;48.010;11.326;2023-08-20T02:53:55;9.40;;;5.72;;
21297;SDS011;10808;48.010;11.326;2023-08-20T02:56:21;11.70;;;5.75;;
21297;SDS011;10808;48.010;11.326;2023-08-20T02:58:47;7.93;;;5.80;;
21297;SDS011;10808;48.010;11.326;2023-08-20T03:01:23;8.35;;;5.70;;
21297;SDS011;10808;48.010;11.326;2023-08-20T03:03:50;10.45;;;5.75;;
21297;SDS011;10808;48.010;11.326;2023-08-20T03:06:17;9.38;;;5.90;;
21297;SDS011;10808;48.010;11.326;2023-08-20T03:08:43;10.30;;;5.70;;
21297;SDS011;10808;48.010;11.326;2023-08-20T03:11:09;10.18;;;5.55;;
21297;SDS011;10808;48.010;11.326;2023-08-20T03:13:35;9.05;;;5.75;;
21297;SDS011;10808;48.010;11.326;2023-08-20T03:16:01;9.77;;;5.47;;
21297;SDS011;10808;48.010;11.326;2023-08-20T03:18:28;8.45;;;5.72;;
21297;SDS011;10808;48.010;11.326;2023-08-20T03:20:55;9.30;;;5.50;;
21297;SDS011;10808;48.010;11.326;2023-08-20T03:23:21;10.68;;;5.97;;
21297;SDS011;10808;48.010;11.326;2023-08-20T03:25:48;8.98;;;5.75;;
21297;SDS011;10808;48.010;11.326;2023-08-20T03:28:15;9.32;;;5.38;;
21297;SDS011;10808;48.010;11.326;2023-08-20T03:30:41;14.13;;;5.78;;
21297;SDS011;10808;48.010;11.326;2023-08-20T03:33:07;9.13;;;5.63;;
21297;SDS011;10808;48.010;11.326;2023-08-20T03:35:33;9.10;;;5.95;;
21297;SDS011;10808;48.010;11.326;2023-08-20T03:37:59;10.68;;;5.90;;
21297;SDS011;10808;48.010;11.326;2023-08-20T03:40:27;7.20;;;5.63;;
21297;SDS011;10808;48.010;11.326;2023-08-20T03:42:53;7.90;;;5.38;;
21297;SDS011;10808;48.010;11.326;2023-08-20T03:45:19;8.50;;;5.85;;
21297;SDS011;10808;48.010;11.326;2023-08-20T03:47:45;10.43;;;6.45;;
21297;SDS011;10808;48.010;11.326;2023-08-20T03:50:12;7.32;;;5.53;;
21297;SDS011;10808;48.010;11.326;2023-08-20T03:52:38;9.32;;;5.80;;
21297;SDS011;10808;48.010;11.326;2023-08-20T03:55:05;11.18;;;6.05;;
21297;SDS011;10808;48.010;11.326;2023-08-20T03:57:31;6.97;;;5.75;;
21297;SDS011;10808;48.010;11.326;2023-08-20T03:59:57;10.53;;;5.80;;
21297;SDS011;10808;48.010;11.326;2023-08-20T04:02:23;8.73;;;5.70;;
21297;SDS011;10808;48.010;11.326;2023-08-20T04:04:49;10.23;;;6.10;;
21297;SDS011;10808;48.010;11.326;2023-08-20T04:07:17;10.20;;;5.55;;
21297;SDS011;10808;48.010;11.326;2023-08-20T04:09:43;8.82;;;5.78;;
21297;SDS011;10808;48.010;11.326;2023-08-20T04:12:09;11.45;;;6.50;;
21297;SDS011;10808;48.010;11.326;2023-08-20T04:14:35;8.57;;;6.40;;
21297;SDS011;10808;48.010;11.326;2023-08-20T04:17:01;11.18;;;6.32;;
21297;SDS011;10808;48.010;11.326;2023-08-20T04:19:27;8.82;;;6.15;;
21297;SDS011;10808;48.010;11.326;2023-08-20T04:21:53;10.63;;;5.88;;
21297;SDS011;10808;48.010;11.326;2023-08-20T04:24:19;10.40;;;6.05;;
21297;SDS011;10808;48.010;11.326;2023-08-20T04:26:45;10.02;;;6.15;;
21297;SDS011;10808;48.010;11.326;2023-08-20T04:29:11;10.82;;;6.50;;
21297;SDS011;10808;48.010;11.326;2023-08-20T04:31:37;10.88;;;5.85;;
21297;SDS011;10808;48.010;11.326;2023-08-20T04:34:03;8.50;;;5.97;;
21297;SDS011;10808;48.010;11.326;2023-08-20T04:36:29;11.67;;;6.07;;
21297;SDS011;10808;48.010;11.326;2023-08-20T04:38:55;10.87;;;5.97;;
21297;SDS011;10808;48.010;11.326;2023-08-20T04:41:21;10.82;;;6.65;;
21297;SDS011;10808;48.010;11.326;2023-08-20T04:43:47;9.00;;;6.40;;
21297;SDS011;10808;48.010;11.326;2023-08-20T04:46:13;11.27;;;6.90;;
21297;SDS011;10808;48.010;11.326;2023-08-20T04:48:40;11.52;;;5.97;;
21297;SDS011;10808;48.010;11.326;2023-08-20T04:51:06;9.23;;;6.07;;
21297;SDS011;10808;48.010;11.326;2023-08-20T04:53:32;13.27;;;6.18;;
21297;SDS011;10808;48.010;11.326;2023-08-20T04:55:59;8.88;;;5.85;;
21297;SDS011;10808;48.010;11.326;2023-08-20T04:58:25;8.57;;;5.93;;
21297;SDS011;10808;48.010;11.326;2023-08-20T05:00:51;10.45;;;6.68;;
21297;SDS011;10808;48.010;11.326;2023-08-20T05:03:17;10.60;;;6.45;;
21297;SDS011;10808;48.010;11.326;2023-08-20T05:05:47;8.52;;;6.35;;
21297;SDS011;10808;48.010;11.326;2023-08-20T05:08:14;10.20;;;6.28;;
21297;SDS011;10808;48.010;11.326;2023-08-20T05:10:40;7.28;;;6.13;;
21297;SDS011;10808;48.010;11.326;2023-08-20T05:13:06;12.82;;;6.38;;
21297;SDS011;10808;48.010;11.326;2023-08-20T05:15:32;9.90;;;6.45;;
21297;SDS011;10808;48.010;11.326;2023-08-20T05:17:59;8.90;;;6.30;;
21297;SDS011;10808;48.010;11.326;2023-08-20T05:20:25;10.13;;;6.72;;
21297;SDS011;10808;48.010;11.326;2023-08-20T05:22:51;12.25;;;6.80;;
21297;SDS011;10808;48.010;11.326;2023-08-20T05:25:17;9.30;;;6.30;;
21297;SDS011;10808;48.010;11.326;2023-08-20T05:27:43;9.00;;;6.00;;
21297;SDS011;10808;48.010;11.326;2023-08-20T05:30:09;9.27;;;6.27;;
21297;SDS011;10808;48.010;11.326;2023-08-20T05:32:35;8.05;;;5.50;;
21297;SDS011;10808;48.010;11.326;2023-08-20T05:35:02;9.88;;;6.28;;
21297;SDS011;10808;48.010;11.326;2023-08-20T05:37:29;9.48;;;5.75;;
21297;SDS011;10808;48.010;11.326;2023-08-20T05:39:55;9.15;;;5.90;;
21297;SDS011;10808;48.010;11.326;2023-08-20T05:42:21;9.20;;;5.82;;
21297;SDS011;10808;48.010;11.326;2023-08-20T05:44:47;7.63;;;5.95;;
21297;SDS011;10808;48.010;11.326;2023-08-20T05:47:13;7.57;;;5.97;;
21297;SDS011;10808;48.010;11.326;2023-08-20T05:49:39;12.07;;;6.10;;
21297;SDS011;10808;48.010;11.326;2023-08-20T05:52:05;13.30;;;6.30;;
21297;SDS011;10808;48.010;11.326;2023-08-20T05:54:31;10.35;;;6.05;;
21297;SDS011;10808;48.010;11.326;2023-08-20T05:56:58;9.20;;;5.57;;
21297;SDS011;10808;48.010;11.326;2023-08-20T05:59:24;11.85;;;6.05;;
21297;SDS011;10808;48.010;11.326;2023-08-20T06:01:52;9.52;;;6.00;;
21297;SDS011;10808;48.010;11.326;2023-08-20T06:04:18;8.93;;;5.57;;
21297;SDS011;10808;48.010;11.326;2023-08-20T06:06:44;10.23;;;5.70;;
21297;SDS011;10808;48.010;11.326;2023-08-20T06:09:10;11.50;;;5.60;;
21297;SDS011;10808;48.010;11.326;2023-08-20T06:11:36;12.02;;;5.45;;
21297;SDS011;10808;48.010;11.326;2023-08-20T06:14:03;7.18;;;5.07;;
21297;SDS011;10808;48.010;11.326;2023-08-20T06:16:29;10.27;;;5.47;;
21297;SDS011;10808;48.010;11.326;2023-08-20T06:18:55;12.00;;;5.57;;
21297;SDS011;10808;48.010;11.326;2023-08-20T06:21:21;10.93;;;5.30;;
21297;SDS011;10808;48.010;11.326;2023-08-20T06:23:47;10.40;;;5.07;;
21297;SDS011;10808;48.010;11.326;2023-08-20T06:26:13;10.13;;;5.40;;
21297;SDS011;10808;48.010;11.326;2023-08-20T06:28:39;7.38;;;5.50;;
21297;SDS011;10808;48.010;11.326;2023-08-20T06:31:05;10.55;;;5.18;;
21297;SDS011;10808;48.010;11.326;2023-08-20T06:33:31;6.75;;;5.00;;
21297;SDS011;10808;48.010;11.326;2023-08-20T06:35:57;9.68;;;5.00;;
21297;SDS011;10808;48.010;11.326;2023-08-20T06:38:23;7.63;;;5.00;;
21297;SDS011;10808;48.010;11.326;2023-08-20T06:40:49;7.53;;;5.10;;
21297;SDS011;10808;48.010;11.326;2023-08-20T06:43:16;7.78;;;5.32;;
21297;SDS011;10808;48.010;11.326;2023-08-20T06:45:42;6.03;;;4.90;;
21297;SDS011;10808;48.010;11.326;2023-08-20T06:48:08;10.73;;;5.47;;
21297;SDS011;10808;48.010;11.326;2023-08-20T06:50:34;6.50;;;4.45;;
21297;SDS011;10808;48.010;11.326;2023-08-20T06:53:00;7.40;;;4.50;;
21297;SDS011;10808;48.010;11.326;2023-08-20T06:55:26;11.20;;;5.37;;
21297;SDS011;10808;48.010;11.326;2023-08-20T06:57:52;9.68;;;5.20;;
21297;SDS011;10808;48.010;11.326;2023-08-20T07:00:18;9.32;;;4.82;;
21297;SDS011;10808;48.010;11.326;2023-08-20T07:02:44;9.80;;;5.10;;
21297;SDS011;10808;48.010;11.326;2023-08-20T07:05:10;8.20;;;5.28;;
21297;SDS011;10808;48.010;11.326;2023-08-20T07:07:36;8.85;;;4.70;;
21297;SDS011;10808;48.010;11.326;2023-08-20T07:10:03;9.10;;;4.90;;
21297;SDS011;10808;48.010;11.326;2023-08-20T07:12:29;9.18;;;4.57;;
21297;SDS011;10808;48.010;11.326;2023-08-20T07:14:55;9.63;;;5.17;;
21297;SDS011;10808;48.010;11.326;2023-08-20T07:17:21;10.52;;;5.10;;
21297;SDS011;10808;48.010;11.326;2023-08-20T07:19:47;8.35;;;4.90;;
21297;SDS011;10808;48.010;11.326;2023-08-20T07:22:13;8.50;;;4.38;;
21297;SDS011;10808;48.010;11.326;2023-08-20T07:24:39;8.23;;;4.50;;
21297;SDS011;10808;48.010;11.326;2023-08-20T07:27:05;9.68;;;5.10;;
21297;SDS011;10808;48.010;11.326;2023-08-20T07:29:36;9.43;;;4.88;;
21297;SDS011;10808;48.010;11.326;2023-08-20T07:32:02;7.15;;;4.38;;
21297;SDS011;10808;48.010;11.326;2023-08-20T07:34:29;9.68;;;4.80;;
21297;SDS011;10808;48.010;11.326;2023-08-20T07:36:59;5.80;;;4.22;;
21297;SDS011;10808;48.010;11.326;2023-08-20T07:39:26;8.23;;;5.10;;
21297;SDS011;10808;48.010;11.326;2023-08-20T07:41:53;5.97;;;4.63;;
21297;SDS011;10808;48.010;11.326;2023-08-20T07:44:19;11.52;;;5.30;;
21297;SDS011;10808;48.010;11.326;2023-08-20T07:46:45;6.50;;;4.47;;
21297;SDS011;10808;48.010;11.326;2023-08-20T07:49:11;5.85;;;4.50;;
21297;SDS011;10808;48.010;11.326;2023-08-20T07:51:37;7.47;;;4.70;;
21297;SDS011;10808;48.010;11.326;2023-08-20T07:54:03;10.20;;;5.00;;
21297;SDS011;10808;48.010;11.326;2023-08-20T07:56:29;9.07;;;4.68;;
21297;SDS011;10808;48.010;11.326;2023-08-20T07:59:03;11.15;;;4.22;;
21297;SDS011;10808;48.010;11.326;2023-08-20T08:01:30;9.13;;;4.47;;
21297;SDS011;10808;48.010;11.326;2023-08-20T08:03:58;9.57;;;4.43;;
21297;SDS011;10808;48.010;11.326;2023-08-20T08:06:24;7.70;;;4.18;;
21297;SDS011;10808;48.010;11.326;2023-08-20T08:08:50;9.07;;;4.40;;
21297;SDS011;10808;48.010;11.326;2023-08-20T08:11:16;8.63;;;4.53;;
21297;SDS011;10808;48.010;11.326;2023-08-20T08:13:42;8.30;;;4.00;;
21297;SDS011;10808;48.010;11.326;2023-08-20T08:16:08;9.68;;;4.60;;
21297;SDS011;10808;48.010;11.326;2023-08-20T08:18:34;9.25;;;4.25;;
21297;SDS011;10808;48.010;11.326;2023-08-20T08:21:00;6.85;;;4.28;;
21297;SDS011;10808;48.010;11.326;2023-08-20T08:23:26;8.40;;;4.25;;
21297;SDS011;10808;48.010;11.326;2023-08-20T08:25:53;5.00;;;3.60;;
21297;SDS011;10808;48.010;11.326;2023-08-20T08:28:19;8.25;;;4.10;;
21297;SDS011;10808;48.010;11.326;2023-08-20T08:30:45;7.30;;;4.30;;
21297;SDS011;10808;48.010;11.326;2023-08-20T08:33:11;8.60;;;3.90;;
21297;SDS011;10808;48.010;11.326;2023-08-20T08:35:37;10.50;;;4.30;;
21297;SDS011;10808;48.010;11.326;2023-08-20T08:38:03;8.77;;;4.18;;
21297;SDS011;10808;48.010;11.326;2023-08-20T08:40:30;11.13;;;3.97;;
21297;SDS011;10808;48.010;11.326;2023-08-20T08:42:56;10.00;;;4.50;;
21297;SDS011;10808;48.010;11.326;2023-08-20T08:45:23;7.05;;;4.10;;
21297;SDS011;10808;48.010;11.326;2023-08-20T08:47:51;9.98;;;3.97;;
21297;SDS011;10808;48.010;11.326;2023-08-20T08:50:20;6.93;;;4.20;;
21297;SDS011;10808;48.010;11.326;2023-08-20T08:52:47;8.00;;;4.35;;
21297;SDS011;10808;48.010;11.326;2023-08-20T08:55:16;11.60;;;4.35;;
21297;SDS011;10808;48.010;11.326;2023-08-20T08:57:42;8.25;;;4.35;;
21297;SDS011;10808;48.010;11.326;2023-08-20T09:00:08;10.25;;;4.53;;
21297;SDS011;10808;48.010;11.326;2023-08-20T09:02:35;9.43;;;4.25;;
21297;SDS011;10808;48.010;11.326;2023-08-20T09:05:01;10.25;;;4.65;;
21297;SDS011;10808;48.010;11.326;2023-08-20T09:07:27;6.07;;;4.13;;
21297;SDS011;10808;48.010;11.326;2023-08-20T09:09:57;8.90;;;4.10;;
21297;SDS011;10808;48.010;11.326;2023-08-20T09:12:25;7.13;;;3.88;;
21297;SDS011;10808;48.010;11.326;2023-08-20T09:14:52;6.97;;;4.20;;
21297;SDS011;10808;48.010;11.326;2023-08-20T09:17:19;8.63;;;4.23;;
21297;SDS011;10808;48.010;11.326;2023-08-20T09:19:46;8.77;;;4.30;;
21297;SDS011;10808;48.010;11.326;2023-08-20T09:22:12;9.60;;;4.00;;
21297;SDS011;10808;48.010;11.326;2023-08-20T09:24:44;8.73;;;3.90;;
21297;SDS011;10808;48.010;11.326;2023-08-20T09:27:12;6.53;;;4.00;;
21297;SDS011;10808;48.010;11.326;2023-08-20T09:32:15;10.00;;;3.88;;
21297;SDS011;10808;48.010;11.326;2023-08-20T09:34:45;7.57;;;4.50;;
21297;SDS011;10808;48.010;11.326;2023-08-20T09:37:13;9.32;;;3.70;;
21297;SDS011;10808;48.010;11.326;2023-08-20T09:39:40;5.05;;;3.53;;
21297;SDS011;10808;48.010;11.326;2023-08-20T09:42:06;5.35;;;3.60;;
21297;SDS011;10808;48.010;11.326;2023-08-20T09:44:34;10.82;;;3.90;;
21297;SDS011;10808;48.010;11.326;2023-08-20T09:47:01;8.73;;;4.10;;
21297;SDS011;10808;48.010;11.326;2023-08-20T09:49:30;11.52;;;4.00;;
21297;SDS011;10808;48.010;11.326;2023-08-20T09:52:03;6.75;;;3.72;;
21297;SDS011;10808;48.010;11.326;2023-08-20T09:54:39;7.05;;;4.00;;
21297;SDS011;10808;48.010;11.326;2023-08-20T09:57:40;6.72;;;3.63;;
21297;SDS011;10808;48.010;11.326;2023-08-20T10:00:08;7.00;;;3.92;;
21297;SDS011;10808;48.010;11.326;2023-08-20T10:02:35;7.22;;;3.80;;
21297;SDS011;10808;48.010;11.326;2023-08-20T10:05:02;9.25;;;3.65;;
21297;SDS011;10808;48.010;11.326;2023-08-20T10:07:31;9.02;;;3.90;;
21297;SDS011;10808;48.010;11.326;2023-08-20T10:10:01;8.38;;;3.72;;
21297;SDS011;10808;48.010;11.326;2023-08-20T10:12:30;8.35;;;3.78;;
21297;SDS011;10808;48.010;11.326;2023-08-20T10:14:56;7.70;;;4.00;;
21297;SDS011;10808;48.010;11.326;2023-08-20T10:17:24;9.63;;;3.92;;
21297;SDS011;10808;48.010;11.326;2023-08-20T10:19:53;6.45;;;3.80;;
21297;SDS011;10808;48.010;11.326;2023-08-20T10:22:19;5.90;;;3.60;;
21297;SDS011;10808;48.010;11.326;2023-08-20T10:24:49;9.73;;;3.80;;
21297;SDS011;10808;48.010;11.326;2023-08-20T10:27:24;7.43;;;3.80;;
21297;SDS011;10808;48.010;11.326;2023-08-20T10:29:54;7.20;;;3.80;;
21297;SDS011;10808;48.010;11.326;2023-08-20T10:32:43;5.47;;;3.70;;
21297;SDS011;10808;48.010;11.326;2023-08-20T10:35:14;6.13;;;3.53;;
21297;SDS011;10808;48.010;11.326;2023-08-20T10:43:28;6.57;;;3.65;;
21297;SDS011;10808;48.010;11.326;2023-08-20T10:48:39;6.28;;;3.28;;
21297;SDS011;10808;48.010;11.326;2023-08-20T10:51:12;6.78;;;3.60;;
21297;SDS011;10808;48.010;11.326;2023-08-20T10:54:22;6.83;;;3.63;;
21297;SDS011;10808;48.010;11.326;2023-08-20T10:59:17;6.15;;;3.25;;
21297;SDS011;10808;48.010;11.326;2023-08-20T11:01:47;6.78;;;3.53;;
21297;SDS011;10808;48.010;11.326;2023-08-20T11:04:15;7.80;;;3.70;;
21297;SDS011;10808;48.010;11.326;2023-08-20T11:06:42;6.18;;;3.63;;
21297;SDS011;10808;48.010;11.326;2023-08-20T11:09:09;8.40;;;3.85;;
21297;SDS011;10808;48.010;11.326;2023-08-20T11:11:39;14.63;;;3.73;;
21297;SDS011;10808;48.010;11.326;2023-08-20T11:14:06;6.40;;;3.85;;
21297;SDS011;10808;48.010;11.326;2023-08-20T11:16:34;5.75;;;3.25;;
21297;SDS011;10808;48.010;11.326;2023-08-20T11:19:02;8.82;;;3.40;;
21297;SDS011;10808;48.010;11.326;2023-08-20T11:21:32;6.60;;;3.00;;
21297;SDS011;10808;48.010;11.326;2023-08-20T11:23:59;8.38;;;3.30;;
21297;SDS011;10808;48.010;11.326;2023-08-20T11:26:26;7.22;;;3.53;;
21297;SDS011;10808;48.010;11.326;2023-08-20T11:28:52;7.82;;;3.35;;
21297;SDS011;10808;48.010;11.326;2023-08-20T11:31:19;6.88;;;2.83;;
21297;SDS011;10808;48.010;11.326;2023-08-20T11:33:45;8.05;;;3.50;;
21297;SDS011;10808;48.010;11.326;2023-08-20T11:36:14;4.70;;;3.30;;
21297;SDS011;10808;48.010;11.326;2023-08-20T11:38:42;7.43;;;3.40;;
21297;SDS011;10808;48.010;11.326;2023-08-20T11:41:14;8.53;;;3.50;;
21297;SDS011;10808;48.010;11.326;2023-08-20T11:43:41;7.97;;;3.72;;
21297;SDS011;10808;48.010;11.326;2023-08-20T11:46:12;6.43;;;3.20;;
21297;SDS011;10808;48.010;11.326;2023-08-20T11:51:26;6.30;;;3.15;;
21297;SDS011;10808;48.010;11.326;2023-08-20T11:53:52;7.95;;;3.08;;
21297;SDS011;10808;48.010;11.326;2023-08-20T11:56:18;7.57;;;3.05;;
21297;SDS011;10808;48.010;11.326;2023-08-20T11:58:58;5.43;;;3.30;;
21297;SDS011;10808;48.010;11.326;2023-08-20T12:01:24;6.15;;;3.00;;
21297;SDS011;10808;48.010;11.326;2023-08-20T12:03:50;4.28;;;3.13;;
21297;SDS011;10808;48.010;11.326;2023-08-20T12:06:20;5.80;;;3.10;;
21297;SDS011;10808;48.010;11.326;2023-08-20T12:08:50;4.47;;;2.92;;
21297;SDS011;10808;48.010;11.326;2023-08-20T12:11:16;4.15;;;2.78;;
21297;SDS011;10808;48.010;11.326;2023-08-20T12:13:42;5.72;;;3.00;;
21297;SDS011;10808;48.010;11.326;2023-08-20T12:16:08;6.20;;;3.10;;
21297;SDS011;10808;48.010;11.326;2023-08-20T12:18:34;5.63;;;2.80;;
21297;SDS011;10808;48.010;11.326;2023-08-20T12:21:00;8.77;;;3.10;;
21297;SDS011;10808;48.010;11.326;2023-08-20T12:23:27;6.32;;;2.83;;
21297;SDS011;10808;48.010;11.326;2023-08-20T12:25:53;5.93;;;2.80;;
21297;SDS011;10808;48.010;11.326;2023-08-20T12:28:19;5.63;;;2.90;;
21297;SDS011;10808;48.010;11.326;2023-08-20T12:30:45;5.88;;;2.95;;
21297;SDS011;10808;48.010;11.326;2023-08-20T12:33:11;5.47;;;2.70;;
21297;SDS011;10808;48.010;11.326;2023-08-20T12:35:37;4.80;;;2.78;;
21297;SDS011;10808;48.010;11.326;2023-08-20T12:38:03;5.87;;;2.97;;
21297;SDS011;10808;48.010;11.326;2023-08-20T12:40:30;4.50;;;2.80;;
21297;SDS011;10808;48.010;11.326;2023-08-20T12:42:56;5.50;;;3.00;;
21297;SDS011;10808;48.010;11.326;2023-08-20T12:45:22;9.63;;;3.00;;
21297;SDS011;10808;48.010;11.326;2023-08-20T12:47:48;4.53;;;2.90;;
21297;SDS011;10808;48.010;11.326;2023-08-20T12:50:14;5.70;;;3.10;;
21297;SDS011;10808;48.010;11.326;2023-08-20T12:52:40;4.78;;;3.20;;
21297;SDS011;10808;48.010;11.326;2023-08-20T12:55:08;6.83;;;2.93;;
21297;SDS011;10808;48.010;11.326;2023-08-20T12:57:34;5.10;;;3.00;;
21297;SDS011;10808;48.010;11.326;2023-08-20T13:00:03;5.65;;;2.97;;
21297;SDS011;10808;48.010;11.326;2023-08-20T13:02:36;6.03;;;3.35;;
21297;SDS011;10808;48.010;11.326;2023-08-20T13:05:03;6.70;;;3.10;;
21297;SDS011;10808;48.010;11.326;2023-08-20T13:07:30;4.93;;;3.03;;
21297;SDS011;10808;48.010;11.326;2023-08-20T13:09:56;7.00;;;3.28;;
21297;SDS011;10808;48.010;11.326;2023-08-20T13:12:23;4.10;;;2.72;;
21297;SDS011;10808;48.010;11.326;2023-08-20T13:14:52;4.40;;;3.20;;
21297;SDS011;10808;48.010;11.326;2023-08-20T13:17:18;9.27;;;3.47;;
21297;SDS011;10808;48.010;11.326;2023-08-20T13:19:45;5.57;;;2.90;;
21297;SDS011;10808;48.010;11.326;2023-08-20T13:22:11;6.22;;;2.78;;
21297;SDS011;10808;48.010;11.326;2023-08-20T13:24:37;8.10;;;3.28;;
21297;SDS011;10808;48.010;11.326;2023-08-20T13:27:03;4.32;;;3.00;;
21297;SDS011;10808;48.010;11.326;2023-08-20T13:29:29;3.83;;;2.90;;
21297;SDS011;10808;48.010;11.326;2023-08-20T13:31:55;5.68;;;2.70;;
21297;SDS011;10808;48.010;11.326;2023-08-20T13:34:21;4.50;;;2.85;;
21297;SDS011;10808;48.010;11.326;2023-08-20T13:36:47;5.18;;;2.85;;
21297;SDS011;10808;48.010;11.326;2023-08-20T13:39:13;4.32;;;2.83;;
21297;SDS011;10808;48.010;11.326;2023-08-20T13:41:40;6.43;;;2.80;;
21297;SDS011;10808;48.010;11.326;2023-08-20T13:44:07;6.90;;;2.90;;
21297;SDS011;10808;48.010;11.326;2023-08-20T13:46:34;5.35;;;2.90;;
21297;SDS011;10808;48.010;11.326;2023-08-20T13:49:01;7.25;;;2.70;;
21297;SDS011;10808;48.010;11.326;2023-08-20T13:51:28;4.40;;;2.90;;
21297;SDS011;10808;48.010;11.326;2023-08-20T13:53:55;7.30;;;2.90;;
21297;SDS011;10808;48.010;11.326;2023-08-20T13:56:22;4.07;;;2.72;;
21297;SDS011;10808;48.010;11.326;2023-08-20T13:58:48;4.93;;;2.80;;
21297;SDS011;10808;48.010;11.326;2023-08-20T14:01:14;4.38;;;3.00;;
21297;SDS011;10808;48.010;11.326;2023-08-20T14:03:40;4.35;;;3.00;;
21297;SDS011;10808;48.010;11.326;2023-08-20T14:06:06;6.23;;;3.00;;
21297;SDS011;10808;48.010;11.326;2023-08-20T14:08:32;6.45;;;3.03;;
21297;SDS011;10808;48.010;11.326;2023-08-20T14:10:58;5.18;;;2.97;;
21297;SDS011;10808;48.010;11.326;2023-08-20T14:13:24;5.13;;;3.30;;
21297;SDS011;10808;48.010;11.326;2023-08-20T14:15:50;5.20;;;3.03;;
21297;SDS011;10808;48.010;11.326;2023-08-20T14:18:16;7.55;;;3.10;;
21297;SDS011;10808;48.010;11.326;2023-08-20T14:20:42;5.13;;;3.00;;
21297;SDS011;10808;48.010;11.326;2023-08-20T14:23:08;5.20;;;2.75;;
21297;SDS011;10808;48.010;11.326;2023-08-20T14:25:34;5.57;;;3.28;;
21297;SDS011;10808;48.010;11.326;2023-08-20T14:28:00;4.53;;;3.03;;
21297;SDS011;10808;48.010;11.326;2023-08-20T14:30:26;7.97;;;3.10;;
21297;SDS011;10808;48.010;11.326;2023-08-20T14:32:52;5.78;;;3.20;;
21297;SDS011;10808;48.010;11.326;2023-08-20T14:35:19;4.53;;;2.90;;
21297;SDS011;10808;48.010;11.326;2023-08-20T14:37:45;6.30;;;3.30;;
21297;SDS011;10808;48.010;11.326;2023-08-20T14:40:11;5.05;;;3.28;;
21297;SDS011;10808;48.010;11.326;2023-08-20T14:42:37;4.90;;;3.17;;
21297;SDS011;10808;48.010;11.326;2023-08-20T14:45:03;6.57;;;3.30;;
21297;SDS011;10808;48.010;11.326;2023-08-20T14:47:30;7.00;;;3.10;;
21297;SDS011;10808;48.010;11.326;2023-08-20T14:49:57;5.22;;;3.22;;
21297;SDS011;10808;48.010;11.326;2023-08-20T14:52:23;5.20;;;2.90;;
21297;SDS011;10808;48.010;11.326;2023-08-20T14:54:49;5.20;;;3.00;;
21297;SDS011;10808;48.010;11.326;2023-08-20T14:57:15;8.07;;;3.17;;